Time;durP1;ratioP1;P1;durP2;ratioP2;P2;SDS_P1;SDS_P2;PMS_P1;PMS_P2;Temp;Humidity;BMP_temperature;BMP_pressure;BME280_temperature;BME280_humidity;BME280_pressure;Samples;Min_cycle;Max_cycle;Signal;HPM_P1;HPM_P2
2023/12/04 00:00:27;;;;;;;31.73;13.88;;;0.00;99.90;;;;;;5072427;28;20036;-59
2023/12/04 00:02:53;;;;;;;30.00;13.73;;;0.00;99.90;;;;;;5072357;28;20037;-59
2023/12/04 00:05:18;;;;;;;28.55;13.05;;;0.00;99.90;;;;;;5072218;28;20122;-59
2023/12/04 00:07:44;;;;;;;30.20;13.93;;;0.00;99.90;;;;;;5072063;28;20044;-59
2023/12/04 00:10:10;;;;;;;31.17;13.85;;;0.00;99.90;;;;;;5072166;28;20123;-59
2023/12/04 00:12:36;;;;;;;31.00;13.90;;;0.00;99.90;;;;;;5072150;28;20117;-57
2023/12/04 00:15:01;;;;;;;26.40;13.82;;;0.00;99.90;;;;;;5072404;28;20397;-59
2023/12/04 00:17:27;;;;;;;30.55;13.65;;;0.10;99.90;;;;;;5072078;28;20032;-59
2023/12/04 00:19:53;;;;;;;30.30;13.30;;;0.00;99.90;;;;;;5071899;28;20040;-59
2023/12/04 00:22:18;;;;;;;29.33;13.63;;;0.10;99.90;;;;;;5072037;28;20155;-59
2023/12/04 00:24:44;;;;;;;29.48;13.43;;;0.00;99.90;;;;;;5072242;28;20392;-59
2023/12/04 00:27:10;;;;;;;30.13;13.70;;;0.10;99.90;;;;;;5071717;28;20088;-59
2023/12/04 00:29:36;;;;;;;30.55;14.45;;;0.00;99.90;;;;;;5071972;28;20051;-59
2023/12/04 00:32:01;;;;;;;28.00;12.18;;;0.00;99.90;;;;;;5071916;28;20451;-59
2023/12/04 00:34:27;;;;;;;32.20;13.80;;;0.10;99.90;;;;;;5072010;28;20040;-59
2023/12/04 00:36:53;;;;;;;30.25;14.52;;;0.10;99.90;;;;;;5072117;28;20083;-59
2023/12/04 00:39:18;;;;;;;30.13;14.65;;;0.00;99.90;;;;;;5071904;28;20038;-59
2023/12/04 00:41:44;;;;;;;28.33;13.57;;;0.00;99.90;;;;;;5071954;28;20075;-60
2023/12/04 00:44:09;;;;;;;31.45;14.48;;;0.00;99.90;;;;;;5072145;28;20041;-59
2023/12/04 00:46:35;;;;;;;32.85;14.25;;;0.10;99.90;;;;;;5071830;28;20033;-60
2023/12/04 00:49:01;;;;;;;31.20;14.43;;;0.10;99.90;;;;;;5071820;28;20546;-59
2023/12/04 00:51:26;;;;;;;26.83;13.38;;;0.00;99.90;;;;;;5071841;28;20523;-59
2023/12/04 00:53:53;;;;;;;29.42;14.38;;;0.00;99.90;;;;;;5071990;28;20051;-59
2023/12/04 00:56:20;;;;;;;28.85;13.85;;;0.00;99.90;;;;;;5070292;28;20040;-58
2023/12/04 00:58:46;;;;;;;28.05;14.27;;;-0.10;99.90;;;;;;5071673;28;20047;-59
2023/12/04 01:01:12;;;;;;;31.27;14.80;;;0.00;99.90;;;;;;5071767;28;20400;-59
2023/12/04 01:03:38;;;;;;;30.83;14.00;;;0.00;99.90;;;;;;5071539;28;20762;-58
2023/12/04 01:06:03;;;;;;;25.88;12.77;;;0.00;99.90;;;;;;5071677;28;20047;-59
2023/12/04 01:08:29;;;;;;;30.92;13.85;;;0.00;99.90;;;;;;5071354;28;20064;-59
2023/12/04 01:10:55;;;;;;;25.52;12.98;;;0.10;99.90;;;;;;5071708;28;20400;-58
2023/12/04 01:13:20;;;;;;;28.85;13.70;;;0.00;99.90;;;;;;5071648;28;20036;-59
2023/12/04 01:15:48;;;;;;;29.08;14.10;;;-0.10;99.90;;;;;;5071511;28;20397;-59
2023/12/04 01:18:14;;;;;;;30.63;14.27;;;0.00;99.90;;;;;;5070234;28;20135;-59
2023/12/04 01:20:40;;;;;;;29.55;14.73;;;0.00;99.90;;;;;;5071620;28;20119;-48
2023/12/04 01:23:05;;;;;;;31.20;13.90;;;-0.10;99.90;;;;;;5071281;28;20076;-46
2023/12/04 01:25:31;;;;;;;30.50;15.15;;;-0.10;99.90;;;;;;5071661;28;20051;-48
2023/12/04 01:27:56;;;;;;;32.60;15.65;;;-0.10;99.90;;;;;;5069952;28;20045;-46
2023/12/04 01:30:22;;;;;;;30.02;14.98;;;-0.10;99.90;;;;;;5071554;28;20055;-49
2023/12/04 01:32:48;;;;;;;28.23;14.15;;;-0.10;99.90;;;;;;5071604;28;20040;-59
2023/12/04 01:35:13;;;;;;;28.15;13.68;;;0.00;99.90;;;;;;5073007;28;20457;-59
2023/12/04 01:37:39;;;;;;;28.15;12.80;;;-0.10;99.90;;;;;;5074929;28;20047;-58
2023/12/04 01:40:06;;;;;;;28.67;13.85;;;0.10;99.90;;;;;;5074799;28;20056;-59
2023/12/04 01:42:32;;;;;;;27.10;13.93;;;0.00;99.90;;;;;;5074677;28;20047;-59
2023/12/04 01:44:58;;;;;;;29.13;15.60;;;0.00;99.90;;;;;;5074535;28;20045;-58
2023/12/04 01:47:24;;;;;;;28.75;13.95;;;-0.10;99.90;;;;;;5074565;28;20047;-59
2023/12/04 01:49:50;;;;;;;28.23;13.30;;;0.00;99.90;;;;;;5073482;28;20452;-59
2023/12/04 01:52:16;;;;;;;27.42;14.75;;;0.00;99.90;;;;;;5074874;28;20028;-60
2023/12/04 01:54:43;;;;;;;29.00;14.55;;;0.00;99.90;;;;;;5061278;28;20040;-59
2023/12/04 01:57:09;;;;;;;30.25;13.48;;;0.00;99.90;;;;;;5054612;28;20052;-59
2023/12/04 01:59:35;;;;;;;27.88;12.95;;;0.00;99.90;;;;;;5054673;28;20052;-59
2023/12/04 02:02:02;;;;;;;25.20;13.98;;;0.00;99.90;;;;;;5054772;28;20182;-59
2023/12/04 02:04:27;;;;;;;31.77;15.40;;;0.00;99.90;;;;;;5054630;28;20047;-46
2023/12/04 02:06:53;;;;;;;29.38;15.65;;;0.00;99.90;;;;;;5054237;28;20040;-46
2023/12/04 02:09:19;;;;;;;26.80;13.50;;;0.00;99.90;;;;;;5053221;28;20098;-46
2023/12/04 02:11:45;;;;;;;30.40;13.20;;;0.00;99.90;;;;;;5054276;28;20068;-45
2023/12/04 02:14:11;;;;;;;25.05;13.15;;;-0.10;99.90;;;;;;5054404;28;20116;-48
2023/12/04 02:16:41;;;;;;;26.02;12.85;;;-0.10;99.90;;;;;;5054356;28;20102;-46
2023/12/04 02:19:08;;;;;;;29.83;14.25;;;0.00;99.90;;;;;;5054422;28;20141;-45
2023/12/04 02:21:34;;;;;;;25.80;13.00;;;0.00;99.90;;;;;;5054295;28;20048;-59
2023/12/04 02:24:00;;;;;;;26.02;12.95;;;-0.10;99.90;;;;;;5054075;28;20059;-59
2023/12/04 02:26:36;;;;;;;24.40;12.20;;;0.00;99.90;;;;;;5054147;28;20045;-60
2023/12/04 02:29:07;;;;;;;23.83;12.25;;;0.00;99.90;;;;;;5053867;28;20045;-59
2023/12/04 02:31:35;;;;;;;27.73;13.90;;;0.00;99.90;;;;;;5054076;28;20037;-44
2023/12/04 02:34:04;;;;;;;26.90;13.52;;;0.00;99.90;;;;;;5054024;28;20047;-45
2023/12/04 02:36:31;;;;;;;25.42;13.15;;;-0.10;99.90;;;;;;5035896;28;20051;-59
2023/12/04 02:38:57;;;;;;;28.45;12.95;;;0.00;99.90;;;;;;5053728;28;20044;-59
2023/12/04 02:41:23;;;;;;;29.95;13.52;;;0.00;99.90;;;;;;5053676;28;20643;-59
2023/12/04 02:43:48;;;;;;;25.83;12.65;;;0.00;99.90;;;;;;5053997;28;20068;-59
2023/12/04 02:46:14;;;;;;;24.67;12.68;;;0.00;99.90;;;;;;5053657;28;20045;-59
2023/12/04 02:48:40;;;;;;;21.75;10.93;;;0.10;99.90;;;;;;5053763;28;20032;-48
2023/12/04 02:51:07;;;;;;;24.45;13.15;;;0.20;99.90;;;;;;5052448;28;20048;-46
2023/12/04 02:53:33;;;;;;;30.65;13.45;;;0.10;99.90;;;;;;5057464;28;20107;-45
2023/12/04 02:55:58;;;;;;;24.65;11.45;;;0.10;99.90;;;;;;5073330;28;20115;-45
2023/12/04 02:58:24;;;;;;;26.33;12.23;;;0.10;99.90;;;;;;5073359;28;20680;-47
2023/12/04 03:00:49;;;;;;;24.33;11.75;;;0.10;99.90;;;;;;5073583;28;20052;-48
2023/12/04 03:03:15;;;;;;;26.85;14.15;;;0.20;99.90;;;;;;5073343;28;20045;-48
2023/12/04 03:05:41;;;;;;;27.65;12.70;;;0.20;99.90;;;;;;5073081;28;20051;-45
2023/12/04 03:08:06;;;;;;;25.42;11.73;;;0.10;99.90;;;;;;5073071;28;20040;-59
2023/12/04 03:10:32;;;;;;;27.80;13.43;;;0.20;99.90;;;;;;5073096;28;20354;-59
2023/12/04 03:12:58;;;;;;;26.13;13.15;;;0.20;99.90;;;;;;5073158;28;20507;-59
2023/12/04 03:15:23;;;;;;;26.83;12.77;;;0.20;99.90;;;;;;5072426;28;20044;-59
2023/12/04 03:17:49;;;;;;;27.48;12.55;;;0.10;99.90;;;;;;5073005;28;20060;-59
2023/12/04 03:20:15;;;;;;;27.23;12.73;;;0.10;99.90;;;;;;5072903;28;20051;-59
2023/12/04 03:22:40;;;;;;;25.67;11.88;;;0.20;99.90;;;;;;5072797;28;20044;-59
2023/12/04 03:25:06;;;;;;;25.23;11.85;;;0.30;99.90;;;;;;5073009;28;20096;-60
2023/12/04 03:27:32;;;;;;;27.38;12.38;;;0.20;99.90;;;;;;5072644;28;20066;-60
2023/12/04 03:29:58;;;;;;;24.48;12.90;;;0.30;99.90;;;;;;5072788;28;20506;-60
2023/12/04 03:32:23;;;;;;;28.77;12.55;;;0.10;99.90;;;;;;5072966;28;20040;-61
2023/12/04 03:34:49;;;;;;;28.92;13.73;;;0.30;99.90;;;;;;5071445;28;20037;-61
2023/12/04 03:37:14;;;;;;;26.38;13.70;;;0.20;99.90;;;;;;5072499;28;20412;-61
2023/12/04 03:39:40;;;;;;;29.95;13.27;;;0.20;99.90;;;;;;5072861;28;20047;-61
2023/12/04 03:42:06;;;;;;;26.65;11.77;;;0.10;99.90;;;;;;5072713;28;20045;-62
2023/12/04 03:44:31;;;;;;;29.50;12.75;;;0.10;99.90;;;;;;5072782;28;20072;-61
2023/12/04 03:46:57;;;;;;;27.52;12.68;;;0.30;99.90;;;;;;5072344;28;20051;-61
2023/12/04 03:49:23;;;;;;;26.85;12.77;;;0.10;99.90;;;;;;5072402;28;20135;-62
2023/12/04 03:51:48;;;;;;;27.30;13.57;;;0.20;99.90;;;;;;5072248;28;20040;-61
2023/12/04 03:54:14;;;;;;;26.05;12.27;;;0.20;99.90;;;;;;5072304;28;20029;-61
2023/12/04 03:56:40;;;;;;;28.13;12.73;;;0.20;99.90;;;;;;5072552;28;20036;-61
2023/12/04 03:59:08;;;;;;;28.98;12.85;;;0.20;99.90;;;;;;5070593;28;20123;-61
2023/12/04 04:01:33;;;;;;;24.45;11.85;;;0.30;99.90;;;;;;5072272;28;20044;-59
2023/12/04 04:03:59;;;;;;;27.83;13.13;;;0.30;99.90;;;;;;5072480;28;20171;-59
2023/12/04 04:06:25;;;;;;;26.98;13.48;;;0.30;99.90;;;;;;5072047;28;20090;-58
2023/12/04 04:08:52;;;;;;;28.65;13.52;;;0.30;99.90;;;;;;5072366;28;20664;-59
2023/12/04 04:11:18;;;;;;;27.27;11.82;;;0.30;99.90;;;;;;5072311;28;20063;-59
2023/12/04 04:13:43;;;;;;;26.77;11.82;;;0.30;99.90;;;;;;5071980;28;20041;-59
2023/12/04 04:16:15;;;;;;;26.58;12.95;;;0.30;99.90;;;;;;5071950;28;20041;-60
2023/12/04 04:18:42;;;;;;;26.65;12.05;;;0.40;99.90;;;;;;5072093;28;20079;-59
2023/12/04 04:21:08;;;;;;;28.33;12.77;;;0.30;99.90;;;;;;5072210;28;20496;-60
2023/12/04 04:23:34;;;;;;;27.40;13.15;;;0.20;99.90;;;;;;5072287;28;20072;-59
2023/12/04 04:25:59;;;;;;;27.58;13.07;;;0.30;99.90;;;;;;5072030;28;20040;-59
2023/12/04 04:28:25;;;;;;;26.42;11.95;;;0.20;99.90;;;;;;5071676;28;20083;-58
2023/12/04 04:30:51;;;;;;;26.05;13.05;;;0.20;99.90;;;;;;5072091;28;20043;-58
2023/12/04 04:33:17;;;;;;;25.30;12.60;;;0.30;99.90;;;;;;5071975;28;20043;-59
2023/12/04 04:35:43;;;;;;;26.60;12.57;;;0.20;99.90;;;;;;5071909;28;20111;-46
2023/12/04 04:38:09;;;;;;;26.98;12.05;;;0.30;99.90;;;;;;5071686;28;20127;-48
2023/12/04 04:40:35;;;;;;;27.42;12.65;;;0.20;99.90;;;;;;5072060;28;20052;-48
2023/12/04 04:43:00;;;;;;;28.15;12.73;;;0.30;99.90;;;;;;5072003;28;20135;-45
2023/12/04 04:45:26;;;;;;;28.52;12.45;;;0.30;99.90;;;;;;5071978;28;20045;-48
2023/12/04 04:47:52;;;;;;;29.95;13.18;;;0.20;99.90;;;;;;5071829;28;20064;-48
2023/12/04 04:50:17;;;;;;;25.42;12.25;;;0.30;99.90;;;;;;5072023;28;20058;-46
2023/12/04 04:52:43;;;;;;;28.27;12.20;;;0.30;99.90;;;;;;5072025;28;20524;-44
2023/12/04 04:55:09;;;;;;;25.35;11.85;;;0.30;99.90;;;;;;5054727;28;20083;-45
2023/12/04 04:57:34;;;;;;;25.58;12.55;;;0.20;99.90;;;;;;5051493;28;20064;-48
2023/12/04 05:00:00;;;;;;;27.38;12.27;;;0.20;99.90;;;;;;5051576;28;20044;-59
2023/12/04 05:02:26;;;;;;;27.98;12.20;;;0.30;99.90;;;;;;5051551;28;20045;-44
2023/12/04 05:04:51;;;;;;;28.40;13.18;;;0.20;99.90;;;;;;5050224;28;20049;-45
2023/12/04 05:07:17;;;;;;;29.75;13.32;;;0.20;99.90;;;;;;5051366;28;20055;-48
2023/12/04 05:09:42;;;;;;;24.75;12.13;;;0.30;99.90;;;;;;5052450;28;20128;-44
2023/12/04 05:12:08;;;;;;;27.25;13.18;;;0.30;99.90;;;;;;5055531;28;20120;-44
2023/12/04 05:14:34;;;;;;;27.48;12.63;;;0.30;99.90;;;;;;5055524;28;20076;-46
2023/12/04 05:17:00;;;;;;;24.73;12.05;;;0.30;99.90;;;;;;5055375;28;20418;-44
2023/12/04 05:19:25;;;;;;;26.95;12.68;;;0.20;99.90;;;;;;5055216;28;20377;-45
2023/12/04 05:21:51;;;;;;;28.23;13.20;;;0.20;99.90;;;;;;5055137;28;20041;-59
2023/12/04 05:24:16;;;;;;;28.75;12.32;;;0.20;99.90;;;;;;5055322;28;20048;-59
2023/12/04 05:26:43;;;;;;;24.65;11.20;;;0.20;99.90;;;;;;5054998;28;20511;-59
2023/12/04 05:29:09;;;;;;;26.30;12.45;;;0.20;99.90;;;;;;5055191;28;20052;-58
2023/12/04 05:31:34;;;;;;;26.20;12.68;;;0.20;99.90;;;;;;5055121;28;20032;-59
2023/12/04 05:34:00;;;;;;;25.58;11.32;;;0.30;99.90;;;;;;5054830;28;20087;-59
2023/12/04 05:36:26;;;;;;;25.67;11.43;;;0.30;99.90;;;;;;5055010;28;20037;-46
2023/12/04 05:38:53;;;;;;;24.65;11.32;;;0.30;99.90;;;;;;5054737;28;20071;-47
2023/12/04 05:41:19;;;;;;;29.45;12.40;;;0.30;99.90;;;;;;5054926;28;20045;-59
2023/12/04 05:43:44;;;;;;;25.73;11.90;;;0.20;99.90;;;;;;5053682;28;20106;-60
2023/12/04 05:46:10;;;;;;;25.35;11.27;;;0.30;99.90;;;;;;5055024;28;20033;-59
2023/12/04 05:48:36;;;;;;;28.73;12.77;;;0.30;99.90;;;;;;5054732;28;20551;-57
2023/12/04 05:51:01;;;;;;;27.58;12.05;;;0.30;99.90;;;;;;5054847;28;20064;-45
2023/12/04 05:53:28;;;;;;;25.90;12.00;;;0.20;99.90;;;;;;5057986;28;20388;-49
2023/12/04 05:55:54;;;;;;;23.77;12.02;;;0.20;99.90;;;;;;5074681;28;20059;-58
2023/12/04 05:58:20;;;;;;;25.38;13.20;;;0.30;99.90;;;;;;5074228;28;20040;-58
2023/12/04 06:00:45;;;;;;;23.00;11.00;;;0.20;99.90;;;;;;5072514;28;20041;-59
2023/12/04 06:03:11;;;;;;;27.75;13.10;;;0.30;99.90;;;;;;5070419;28;20036;-58
2023/12/04 06:05:37;;;;;;;24.38;12.27;;;0.30;99.90;;;;;;5073950;28;20119;-58
2023/12/04 06:08:03;;;;;;;23.92;12.30;;;0.30;99.90;;;;;;5068850;28;20033;-59
2023/12/04 06:10:28;;;;;;;24.05;11.75;;;0.30;99.90;;;;;;5062283;28;20661;-59
2023/12/04 06:12:54;;;;;;;22.55;10.98;;;0.30;99.90;;;;;;5063903;28;20028;-45
2023/12/04 06:15:20;;;;;;;24.88;12.45;;;0.40;99.90;;;;;;5060545;28;20082;-48
2023/12/04 06:17:45;;;;;;;27.58;11.85;;;0.20;99.90;;;;;;5053346;28;20139;-59
2023/12/04 06:20:11;;;;;;;26.25;12.55;;;0.30;99.90;;;;;;5053234;28;20056;-58
2023/12/04 06:22:37;;;;;;;25.58;12.07;;;0.20;99.90;;;;;;5053485;28;20045;-59
2023/12/04 06:25:03;;;;;;;24.73;11.57;;;0.30;99.90;;;;;;5053220;28;20508;-59
2023/12/04 06:27:29;;;;;;;26.10;12.00;;;0.30;99.90;;;;;;5052856;28;20489;-59
2023/12/04 06:29:55;;;;;;;23.08;11.20;;;0.40;99.90;;;;;;5053182;28;20483;-59
2023/12/04 06:32:21;;;;;;;26.17;11.85;;;0.30;99.90;;;;;;5052897;28;20152;-59
2023/12/04 06:34:47;;;;;;;25.10;11.93;;;0.30;99.90;;;;;;5053112;28;20128;-59
2023/12/04 06:37:13;;;;;;;28.30;11.73;;;0.40;99.90;;;;;;5053274;28;20389;-59
2023/12/04 06:39:40;;;;;;;26.10;11.77;;;0.40;99.90;;;;;;5053164;28;20465;-59
2023/12/04 06:42:07;;;;;;;24.35;11.57;;;0.30;99.90;;;;;;5053026;28;20409;-60
2023/12/04 06:44:33;;;;;;;25.25;12.15;;;0.30;99.90;;;;;;5052900;28;20043;-49
2023/12/04 06:47:03;;;;;;;22.65;10.32;;;0.30;99.90;;;;;;5052599;28;20041;-46
2023/12/04 06:49:31;;;;;;;23.90;11.45;;;0.30;99.90;;;;;;5052644;28;20049;-48
2023/12/04 06:51:56;;;;;;;23.48;11.45;;;0.30;99.90;;;;;;5052692;28;20045;-49
2023/12/04 06:54:22;;;;;;;24.15;10.70;;;0.30;99.90;;;;;;5063608;28;20119;-59
2023/12/04 06:56:48;;;;;;;27.13;11.10;;;0.30;99.90;;;;;;5072761;28;20086;-59
2023/12/04 06:59:14;;;;;;;23.55;11.73;;;0.30;99.90;;;;;;5071126;28;20041;-59
2023/12/04 07:01:39;;;;;;;25.55;11.02;;;0.30;99.90;;;;;;5072480;28;20044;-59
2023/12/04 07:04:09;;;;;;;25.85;11.35;;;0.30;99.90;;;;;;5071371;28;20048;-59
2023/12/04 07:06:41;;;;;;;23.77;10.55;;;0.20;99.90;;;;;;5072433;28;20382;-58
2023/12/04 07:09:08;;;;;;;23.15;10.75;;;0.30;99.90;;;;;;5071555;28;20119;-59
2023/12/04 07:11:34;;;;;;;24.27;10.10;;;0.20;99.90;;;;;;5072149;28;20127;-59
2023/12/04 07:13:59;;;;;;;23.80;10.65;;;0.20;99.90;;;;;;5072293;28;20090;-46
2023/12/04 07:16:25;;;;;;;21.83;10.80;;;0.30;99.90;;;;;;5072251;28;20036;-59
2023/12/04 07:18:51;;;;;;;22.02;10.40;;;0.20;99.90;;;;;;5072234;28;20044;-58
2023/12/04 07:21:17;;;;;;;20.90;10.18;;;0.20;99.90;;;;;;5072095;28;20128;-46
2023/12/04 07:23:42;;;;;;;23.88;10.05;;;0.20;99.90;;;;;;5065097;28;20081;-45
2023/12/04 07:26:08;;;;;;;25.13;10.80;;;0.30;99.90;;;;;;5071529;28;20059;-45
2023/12/04 07:28:34;;;;;;;26.52;11.90;;;0.20;99.90;;;;;;5070234;28;20055;-46
2023/12/04 07:31:01;;;;;;;25.77;12.00;;;0.20;99.90;;;;;;5072098;28;20036;-58
2023/12/04 07:33:27;;;;;;;23.73;11.80;;;0.20;99.90;;;;;;5071374;28;20045;-58
2023/12/04 07:35:53;;;;;;;23.92;11.93;;;0.20;99.90;;;;;;5071947;28;20044;-45
2023/12/04 07:38:19;;;;;;;24.60;11.57;;;0.20;99.90;;;;;;5071963;28;20074;-46
2023/12/04 07:40:45;;;;;;;24.45;11.45;;;0.20;99.90;;;;;;5071690;28;20040;-59
2023/12/04 07:43:11;;;;;;;23.00;11.55;;;0.30;99.90;;;;;;5071548;28;20754;-59
2023/12/04 07:45:36;;;;;;;25.80;10.93;;;0.20;99.90;;;;;;5071527;28;20115;-59
2023/12/04 07:48:04;;;;;;;25.42;11.82;;;0.20;99.90;;;;;;5071572;28;20129;-59
2023/12/04 07:50:29;;;;;;;23.95;11.00;;;0.20;99.90;;;;;;5070032;28;20073;-59
2023/12/04 07:52:55;;;;;;;23.95;11.48;;;0.30;99.90;;;;;;5071902;28;20048;-47
2023/12/04 07:55:21;;;;;;;20.92;10.00;;;0.20;99.90;;;;;;5052509;28;20041;-49
2023/12/04 07:57:47;;;;;;;23.48;12.35;;;0.20;99.90;;;;;;5051380;28;20045;-47
2023/12/04 08:00:14;;;;;;;23.77;11.85;;;0.20;99.90;;;;;;5051546;28;20056;-47
2023/12/04 08:02:40;;;;;;;21.70;10.75;;;0.30;99.90;;;;;;5051596;28;20037;-47
2023/12/04 08:05:06;;;;;;;24.38;11.23;;;0.30;99.90;;;;;;5051378;28;20064;-61
2023/12/04 08:07:32;;;;;;;22.70;11.30;;;0.30;99.90;;;;;;5052887;28;20053;-61
2023/12/04 08:09:58;;;;;;;22.27;10.45;;;0.30;99.90;;;;;;5056588;28;20040;-61
2023/12/04 08:12:23;;;;;;;22.80;11.43;;;0.30;99.90;;;;;;5050871;28;20507;-47
2023/12/04 08:14:49;;;;;;;22.15;9.73;;;0.30;99.90;;;;;;5050850;28;20037;-60
2023/12/04 08:17:15;;;;;;;23.75;11.18;;;0.30;99.90;;;;;;5050890;28;20120;-60
2023/12/04 08:19:41;;;;;;;24.73;11.30;;;0.40;99.90;;;;;;5051163;28;20102;-60
2023/12/04 08:22:07;;;;;;;21.73;10.35;;;0.30;99.90;;;;;;5050909;28;20041;-60
2023/12/04 08:24:32;;;;;;;24.00;10.80;;;0.40;99.90;;;;;;5050753;28;20048;-47
2023/12/04 08:26:58;;;;;;;20.80;9.82;;;0.40;99.90;;;;;;5049426;28;20063;-47
2023/12/04 08:29:24;;;;;;;24.58;11.63;;;0.40;99.90;;;;;;5051163;28;20134;-47
2023/12/04 08:31:50;;;;;;;24.77;10.90;;;0.40;99.90;;;;;;5050958;28;20068;-47
2023/12/04 08:34:16;;;;;;;20.90;10.10;;;0.40;99.90;;;;;;5050887;28;20108;-61
2023/12/04 08:36:41;;;;;;;19.63;10.10;;;0.40;99.90;;;;;;5050991;28;20549;-61
2023/12/04 08:39:07;;;;;;;24.15;9.95;;;0.50;99.90;;;;;;5051165;28;20389;-61
2023/12/04 08:41:33;;;;;;;18.88;9.30;;;0.40;99.90;;;;;;5050755;28;20045;-60
2023/12/04 08:43:58;;;;;;;19.15;9.52;;;0.50;99.90;;;;;;5052487;28;20048;-61
2023/12/04 08:46:24;;;;;;;18.83;9.50;;;0.50;99.90;;;;;;5055284;28;20051;-61
2023/12/04 08:48:50;;;;;;;22.60;9.68;;;0.50;99.90;;;;;;5055140;28;20059;-48
2023/12/04 08:51:17;;;;;;;17.30;8.88;;;0.50;99.90;;;;;;5055154;28;20040;-48
2023/12/04 08:53:45;;;;;;;19.80;10.15;;;0.60;99.90;;;;;;5060976;28;20083;-50
2023/12/04 08:56:11;;;;;;;19.50;9.95;;;0.50;99.90;;;;;;5074910;28;20083;-46
2023/12/04 08:58:38;;;;;;;17.65;8.55;;;0.60;99.90;;;;;;5075511;28;20036;-48
2023/12/04 09:01:04;;;;;;;19.23;8.82;;;0.60;99.90;;;;;;5074137;28;20052;-46
2023/12/04 09:03:31;;;;;;;21.20;9.50;;;0.60;99.90;;;;;;5075477;28;20504;-46
2023/12/04 09:05:57;;;;;;;15.50;8.02;;;0.70;99.90;;;;;;5075417;28;20047;-48
2023/12/04 09:08:25;;;;;;;19.00;8.38;;;0.60;99.90;;;;;;5075395;28;20045;-49
2023/12/04 09:10:51;;;;;;;18.48;8.55;;;0.70;99.90;;;;;;5075695;28;20389;-49
2023/12/04 09:13:17;;;;;;;18.75;9.23;;;0.70;99.90;;;;;;5075617;28;20043;-49
2023/12/04 09:15:42;;;;;;;17.83;9.02;;;0.70;99.90;;;;;;5075216;28;20453;-47
2023/12/04 09:18:08;;;;;;;15.82;7.80;;;0.80;99.90;;;;;;5075347;28;20040;-49
2023/12/04 09:20:34;;;;;;;15.65;8.20;;;0.80;99.90;;;;;;5075160;28;20047;-49
2023/12/04 09:23:00;;;;;;;15.35;7.45;;;0.80;99.90;;;;;;5074703;28;20113;-48
2023/12/04 09:25:25;;;;;;;17.25;8.57;;;0.90;99.90;;;;;;5075185;28;20049;-61
2023/12/04 09:27:51;;;;;;;17.30;7.97;;;0.80;99.90;;;;;;5073584;28;20548;-47
2023/12/04 09:30:17;;;;;;;17.02;8.68;;;0.90;99.90;;;;;;5073062;28;20043;-61
2023/12/04 09:32:43;;;;;;;18.65;8.73;;;0.90;99.90;;;;;;5073782;28;20044;-61
2023/12/04 09:35:09;;;;;;;17.35;8.70;;;0.80;99.90;;;;;;5074833;28;20036;-60
2023/12/04 09:37:35;;;;;;;16.10;7.50;;;0.80;99.90;;;;;;5074578;28;20055;-48
2023/12/04 09:40:01;;;;;;;17.38;8.88;;;0.90;99.90;;;;;;5074805;28;20123;-59
2023/12/04 09:42:27;;;;;;;15.32;7.45;;;0.90;99.90;;;;;;5074802;28;20044;-61
2023/12/04 09:44:54;;;;;;;16.17;8.20;;;0.90;99.90;;;;;;5074879;28;20033;-45
2023/12/04 09:47:20;;;;;;;17.05;7.57;;;0.80;99.90;;;;;;5074364;28;20384;-46
2023/12/04 09:49:46;;;;;;;18.27;8.52;;;0.90;99.90;;;;;;5074396;28;20185;-50
2023/12/04 09:52:12;;;;;;;18.08;7.85;;;0.80;99.90;;;;;;5074351;28;20093;-61
2023/12/04 09:54:40;;;;;;;17.48;7.60;;;0.90;99.90;;;;;;5060131;28;20116;-49
2023/12/04 09:57:05;;;;;;;16.80;8.13;;;0.90;99.90;;;;;;5053698;28;20041;-62
2023/12/04 09:59:31;;;;;;;14.93;7.70;;;0.90;99.90;;;;;;5054489;28;20064;-47
2023/12/04 10:01:57;;;;;;;14.95;7.88;;;0.90;99.90;;;;;;5054499;28;20059;-48
2023/12/04 10:04:24;;;;;;;16.08;7.78;;;0.90;99.90;;;;;;5054494;28;20044;-48
2023/12/04 10:06:52;;;;;;;14.75;7.65;;;1.00;99.90;;;;;;5054125;28;20134;-49
2023/12/04 10:09:19;;;;;;;18.30;7.85;;;1.00;99.90;;;;;;5054105;28;20052;-60
2023/12/04 10:11:48;;;;;;;16.92;8.10;;;1.00;99.90;;;;;;5054130;28;20500;-48
2023/12/04 10:14:19;;;;;;;17.98;8.70;;;1.00;99.90;;;;;;5054436;28;20048;-51
2023/12/04 10:16:46;;;;;;;15.73;7.55;;;1.10;99.90;;;;;;5054064;28;20036;-47
2023/12/04 10:19:20;;;;;;;17.85;8.65;;;1.10;99.90;;;;;;5054267;28;20037;-51
2023/12/04 10:21:47;;;;;;;16.20;8.15;;;1.20;99.90;;;;;;5054274;28;20059;-61
2023/12/04 10:24:26;;;;;;;14.82;7.05;;;1.20;99.80;;;;;;5072030;28;20047;-61
2023/12/04 10:26:52;;;;;;;18.45;7.78;;;1.30;99.80;;;;;;5066614;28;20427;-61
2023/12/04 10:29:18;;;;;;;16.95;7.65;;;1.30;99.40;;;;;;5073513;28;20060;-61
2023/12/04 10:31:43;;;;;;;14.68;7.53;;;1.40;97.10;;;;;;5073786;28;20043;-61
2023/12/04 10:34:09;;;;;;;14.55;7.28;;;1.40;94.20;;;;;;5073845;28;20082;-61
2023/12/04 10:36:36;;;;;;;14.15;7.30;;;1.40;93.80;;;;;;5073777;28;20033;-46
2023/12/04 10:39:05;;;;;;;14.35;7.05;;;1.50;91.70;;;;;;5073705;28;20571;-47
2023/12/04 10:41:31;;;;;;;15.68;7.05;;;1.50;92.30;;;;;;5073898;28;20133;-47
2023/12/04 10:43:58;;;;;;;13.57;6.57;;;1.50;91.30;;;;;;5073457;28;20035;-61
2023/12/04 10:46:27;;;;;;;13.15;6.50;;;1.60;89.10;;;;;;5073621;28;20059;-61
2023/12/04 10:48:53;;;;;;;16.17;7.45;;;1.50;88.30;;;;;;5071787;28;20041;-47
2023/12/04 10:51:22;;;;;;;13.63;6.78;;;1.50;86.30;;;;;;5058370;28;20037;-46
2023/12/04 10:53:48;;;;;;;14.40;7.22;;;1.60;90.10;;;;;;5061792;28;20032;-49
2023/12/04 10:56:37;;;;;;;15.85;7.63;;;1.50;87.50;;;;;;5063404;28;20085;-48
2023/12/04 10:59:10;;;;;;;15.25;7.07;;;1.50;83.30;;;;;;5067429;28;20047;-61
2023/12/04 11:01:37;;;;;;;14.68;6.95;;;1.60;84.70;;;;;;5072663;28;20048;-61
2023/12/04 11:04:06;;;;;;;15.63;7.53;;;1.50;79.50;;;;;;5072211;28;20492;-49
2023/12/04 11:06:37;;;;;;;13.95;6.88;;;1.60;79.80;;;;;;5073110;28;20082;-46
2023/12/04 11:09:05;;;;;;;15.57;6.43;;;1.60;79.10;;;;;;5071981;28;20049;-50
2023/12/04 11:11:35;;;;;;;20.20;7.25;;;1.60;80.30;;;;;;5059920;28;20040;-47
2023/12/04 11:14:04;;;;;;;15.77;7.95;;;1.70;78.00;;;;;;5068358;28;20150;-61
2023/12/04 11:16:38;;;;;;;15.27;6.97;;;1.70;80.10;;;;;;5061293;28;20415;-61
2023/12/04 11:19:17;;;;;;;14.10;6.68;;;1.70;75.00;;;;;;5066569;28;20049;-46
2023/12/04 11:21:46;;;;;;;15.70;6.95;;;1.70;73.60;;;;;;5072433;28;20091;-59
2023/12/04 11:24:12;;;;;;;13.45;6.10;;;1.70;72.00;;;;;;5072796;28;20044;-61
2023/12/04 11:26:40;;;;;;;13.02;6.50;;;1.80;71.30;;;;;;5072272;28;20380;-61
2023/12/04 11:29:08;;;;;;;12.43;6.00;;;1.80;67.70;;;;;;5061776;28;20159;-60
2023/12/04 11:31:35;;;;;;;13.98;6.68;;;1.80;67.50;;;;;;5062828;28;20107;-61
2023/12/04 11:34:04;;;;;;;13.00;6.55;;;1.90;63.40;;;;;;5060766;28;20384;-51
2023/12/04 11:36:30;;;;;;;14.27;7.07;;;1.90;61.80;;;;;;5052895;28;20068;-50
2023/12/04 11:38:56;;;;;;;11.48;5.95;;;1.80;54.90;;;;;;5052630;28;20130;-47
2023/12/04 11:41:24;;;;;;;12.13;5.68;;;2.00;59.00;;;;;;5052493;28;20048;-48
2023/12/04 11:43:51;;;;;;;12.98;5.50;;;2.00;58.90;;;;;;5052614;28;20037;-61
2023/12/04 11:46:24;;;;;;;13.13;6.47;;;2.10;58.00;;;;;;5052421;28;20080;-61
2023/12/04 11:48:51;;;;;;;12.57;5.80;;;2.10;53.30;;;;;;5052118;28;20044;-61
2023/12/04 11:51:40;;;;;;;12.63;5.95;;;2.00;49.00;;;;;;5051342;28;20381;-60
2023/12/04 11:54:09;;;;;;;11.43;5.68;;;2.00;51.40;;;;;;5060577;28;20037;-61
2023/12/04 11:56:35;;;;;;;12.60;6.20;;;2.10;52.40;;;;;;5072264;28;20037;-47
2023/12/04 11:59:05;;;;;;;14.57;5.60;;;2.10;52.00;;;;;;5071091;28;20400;-46
2023/12/04 12:01:37;;;;;;;16.20;6.53;;;2.10;55.50;;;;;;5072350;28;20154;-60
2023/12/04 12:04:06;;;;;;;12.60;6.28;;;2.10;57.90;;;;;;5072418;28;20131;-60
2023/12/04 12:06:32;;;;;;;13.07;6.05;;;2.10;59.80;;;;;;5071901;28;20048;-61
2023/12/04 12:08:59;;;;;;;12.32;6.10;;;2.00;59.50;;;;;;5072113;28;20036;-61
2023/12/04 12:11:26;;;;;;;14.43;6.53;;;2.00;61.50;;;;;;5071740;28;20438;-61
2023/12/04 12:13:53;;;;;;;13.50;6.68;;;1.90;60.70;;;;;;5071226;28;20029;-61
2023/12/04 12:16:19;;;;;;;12.57;6.10;;;1.90;60.30;;;;;;5071546;28;20040;-47
2023/12/04 12:18:44;;;;;;;14.35;7.05;;;1.80;63.60;;;;;;5071818;28;20435;-46
2023/12/04 12:21:10;;;;;;;13.25;6.45;;;1.80;65.50;;;;;;5072320;28;20049;-46
2023/12/04 12:23:36;;;;;;;14.48;7.10;;;1.80;65.50;;;;;;5071914;28;20123;-48
2023/12/04 12:26:02;;;;;;;13.02;6.28;;;1.80;66.60;;;;;;5071957;28;20115;-61
2023/12/04 12:28:31;;;;;;;12.30;6.43;;;1.80;69.50;;;;;;5071500;28;20266;-61
2023/12/04 12:31:03;;;;;;;15.93;6.45;;;1.80;67.50;;;;;;5071917;28;20048;-46
2023/12/04 12:33:29;;;;;;;15.27;7.35;;;1.80;66.70;;;;;;5071907;28;20059;-47
2023/12/04 12:35:56;;;;;;;13.48;6.13;;;1.80;66.10;;;;;;5070579;28;20396;-46